Kenmare, North Dakota
Current Conditions -  °F | °C
As of 6:55 AM on Friday 19 Dec 2014 (Local Time) from K08D Reporting Station
Moderate Fog Moderate Fog  
Wind Chill: 19°   Ceiling: 200
Heat Index: 25°   Visibility: 0.5mi
Dew Point: 25°   Wind: 5mph
Humidity: 100%   Direction: 300°WNW
Pressure: 29.9"   Gusts: NA
Location:  48.67°N, 102.08°W
Report Text: K08D 191255Z AUTO 30004KT 1/2SM FZFG OVC002 M04/M04 A2990 RMK AO2
Loading
Personal Weather Stations






























Interactive Weather Map New forecast layout! Learn more

10-Day Weather Forecast

Advertisements
Track Severe Weather on mobile